createdAt,value
2022-10-05T00:01:31.605Z,6.97
2022-10-05T00:04:19.219Z,6.40
2022-10-05T00:06:56.155Z,6.53
2022-10-05T00:09:23.419Z,6.90
2022-10-05T00:11:51.439Z,6.38
2022-10-05T00:14:33.339Z,6.10
2022-10-05T00:17:02.147Z,6.88
2022-10-05T00:19:35.071Z,7.03
2022-10-05T00:22:16.727Z,5.97
2022-10-05T00:24:45.407Z,6.80
2022-10-05T00:27:23.325Z,6.40
2022-10-05T00:29:52.837Z,6.57
2022-10-05T00:32:19.961Z,6.40
2022-10-05T00:34:47.449Z,6.50
2022-10-05T00:37:14.963Z,5.88
2022-10-05T00:39:42.841Z,6.28
2022-10-05T00:42:32.745Z,6.72
2022-10-05T00:45:07.458Z,6.40
2022-10-05T00:47:46.640Z,6.35
2022-10-05T00:50:45.568Z,5.90
2022-10-05T00:53:43.946Z,6.30
2022-10-05T00:56:54.628Z,6.47
2022-10-05T01:00:16.100Z,6.50
2022-10-05T01:03:13.031Z,6.75
2022-10-05T01:06:22.538Z,6.60
2022-10-05T01:09:15.670Z,6.68
2022-10-05T01:11:58.012Z,6.25
2022-10-05T01:14:46.217Z,7.13
2022-10-05T01:17:26.234Z,7.13
2022-10-05T01:20:39.517Z,6.65
2022-10-05T01:23:58.777Z,6.70
2022-10-05T01:27:09.676Z,7.00
2022-10-05T01:29:56.917Z,8.47
2022-10-05T01:32:53.113Z,7.30
2022-10-05T01:35:47.221Z,7.82
2022-10-05T01:38:40.151Z,7.57
2022-10-05T01:41:28.132Z,8.13
2022-10-05T01:44:16.408Z,7.87
2022-10-05T01:47:13.500Z,9.07
2022-10-05T01:50:12.346Z,8.73
2022-10-05T01:52:51.090Z,8.15
2022-10-05T01:56:03.324Z,8.05
2022-10-05T01:58:51.652Z,8.20
2022-10-05T02:01:42.708Z,8.63
2022-10-05T02:05:00.380Z,8.38
2022-10-05T02:07:58.448Z,9.20
2022-10-05T02:10:38.283Z,8.82
2022-10-05T02:13:24.959Z,8.93
2022-10-05T02:16:05.408Z,8.77
2022-10-05T02:18:56.838Z,8.68
2022-10-05T02:21:25.135Z,8.88
2022-10-05T02:23:57.483Z,8.63
2022-10-05T02:26:26.167Z,9.17
2022-10-05T02:28:59.511Z,9.30
2022-10-05T02:31:43.377Z,9.38
2022-10-05T02:34:29.968Z,9.45
2022-10-05T02:37:25.224Z,9.32
2022-10-05T02:40:57.238Z,8.63
2022-10-05T02:43:53.912Z,8.52
2022-10-05T02:46:36.626Z,8.50
2022-10-05T02:49:26.399Z,8.73
2022-10-05T02:52:08.492Z,9.00
2022-10-05T02:54:41.299Z,8.50
2022-10-05T02:57:47.195Z,8.80
2022-10-05T03:00:21.328Z,8.90
2022-10-05T03:03:06.422Z,9.55
2022-10-05T03:05:48.721Z,9.30
2022-10-05T03:08:26.899Z,8.67
2022-10-05T03:11:26.515Z,8.75
2022-10-05T03:14:23.445Z,8.88
2022-10-05T03:17:18.977Z,8.93
2022-10-05T03:20:34.184Z,9.10
2022-10-05T03:23:12.345Z,8.67
2022-10-05T03:26:36.500Z,8.68
2022-10-05T03:29:34.755Z,9.18
2022-10-05T03:32:41.794Z,8.02
2022-10-05T03:35:23.202Z,8.52
2022-10-05T03:38:20.922Z,8.20
2022-10-05T03:40:59.211Z,7.75
2022-10-05T03:43:56.200Z,7.70
2022-10-05T03:46:48.959Z,8.38
2022-10-05T03:49:59.506Z,8.15
2022-10-05T03:52:52.044Z,7.73
2022-10-05T03:55:45.833Z,7.75
2022-10-05T03:58:44.223Z,7.43
2022-10-05T04:01:18.661Z,8.05
2022-10-05T04:04:04.050Z,7.47
2022-10-05T04:06:38.531Z,7.60
2022-10-05T04:09:31.673Z,7.50
2022-10-05T04:12:26.285Z,6.80
2022-10-05T04:15:42.172Z,6.93
2022-10-05T04:18:34.253Z,6.65
2022-10-05T04:21:37.035Z,6.60
2022-10-05T04:24:24.608Z,6.45
2022-10-05T04:27:19.713Z,6.25
2022-10-05T04:29:56.104Z,6.32
2022-10-05T04:32:43.365Z,6.47
2022-10-05T04:35:59.922Z,7.10
2022-10-05T04:38:43.340Z,7.28
2022-10-05T04:41:25.664Z,6.65
2022-10-05T04:44:41.231Z,7.07
2022-10-05T04:47:35.240Z,5.78
2022-10-05T04:50:12.835Z,6.37
2022-10-05T04:53:04.543Z,7.05
2022-10-05T04:55:58.422Z,7.75
2022-10-05T04:59:00.672Z,6.97
2022-10-05T05:01:58.904Z,6.82
2022-10-05T05:04:37.733Z,7.70
2022-10-05T05:07:28.255Z,7.20
2022-10-05T05:10:39.530Z,6.03
2022-10-05T05:13:50.545Z,6.20
2022-10-05T05:16:41.285Z,5.22
2022-10-05T05:19:38.865Z,5.23
2022-10-05T05:22:18.963Z,4.32
2022-10-05T05:25:13.992Z,4.97
2022-10-05T05:28:17.679Z,4.70
2022-10-05T05:31:22.988Z,5.07
2022-10-05T05:34:30.300Z,4.63
2022-10-05T05:37:36.080Z,4.63
2022-10-05T05:40:25.251Z,4.38
2022-10-05T05:43:02.748Z,4.53
2022-10-05T05:45:45.283Z,4.45
2022-10-05T05:48:41.644Z,4.67
2022-10-05T05:51:48.252Z,4.60
2022-10-05T05:54:31.662Z,4.28
2022-10-05T05:57:16.421Z,5.35
2022-10-05T06:00:24.038Z,4.70
2022-10-05T06:03:31.742Z,5.00
2022-10-05T06:06:05.414Z,5.45
2022-10-05T06:08:56.624Z,5.55
2022-10-05T06:11:37.392Z,6.20
2022-10-05T06:14:25.953Z,6.15
2022-10-05T06:17:21.300Z,6.10
2022-10-05T06:19:50.947Z,5.97
2022-10-05T06:22:34.164Z,5.80
2022-10-05T06:25:24.313Z,5.55
2022-10-05T06:28:00.313Z,5.75
2022-10-05T06:30:56.978Z,6.20
2022-10-05T06:33:54.092Z,6.22
2022-10-05T06:36:50.463Z,6.45
2022-10-05T06:39:26.320Z,5.38
2022-10-05T06:42:02.013Z,6.30
2022-10-05T06:44:53.422Z,7.20
2022-10-05T06:48:04.285Z,7.00
2022-10-05T06:50:55.465Z,6.50
2022-10-05T06:54:10.877Z,6.03
2022-10-05T06:57:04.632Z,6.13
2022-10-05T06:59:51.008Z,6.03
2022-10-05T07:02:42.138Z,6.05
2022-10-05T07:05:50.422Z,6.05
2022-10-05T07:08:43.538Z,5.90
2022-10-05T07:11:42.151Z,5.53
2022-10-05T07:14:20.988Z,5.90
2022-10-05T07:17:20.834Z,5.68
2022-10-05T07:20:22.828Z,5.80
2022-10-05T07:23:25.360Z,5.45
2022-10-05T07:26:17.902Z,6.00
2022-10-05T07:29:14.851Z,5.17
2022-10-05T07:31:58.613Z,5.78
2022-10-05T07:34:43.589Z,5.28
2022-10-05T07:37:38.627Z,4.68
2022-10-05T07:40:28.065Z,4.35
2022-10-05T07:43:17.548Z,5.43
2022-10-05T07:45:53.237Z,5.40
2022-10-05T07:48:37.686Z,5.00
2022-10-05T07:51:36.763Z,4.65
2022-10-05T07:54:25.132Z,4.60
2022-10-05T07:57:21.164Z,5.03
2022-10-05T08:00:11.322Z,5.32
2022-10-05T08:02:58.370Z,5.55
2022-10-05T08:05:35.872Z,5.75
2022-10-05T08:08:39.011Z,5.45
2022-10-05T08:11:19.569Z,7.17
2022-10-05T08:14:00.764Z,5.30
2022-10-05T08:16:35.448Z,5.03
2022-10-05T08:19:23.210Z,4.43
2022-10-05T08:22:03.223Z,4.80
2022-10-05T08:25:05.257Z,5.13
2022-10-05T08:28:04.883Z,5.55
2022-10-05T08:30:48.585Z,5.43
2022-10-05T08:33:18.651Z,5.28
2022-10-05T08:35:55.755Z,4.93
2022-10-05T08:38:32.630Z,4.40
2022-10-05T08:41:36.014Z,5.10
2022-10-05T08:44:29.181Z,4.65
2022-10-05T08:47:36.466Z,4.45
2022-10-05T08:50:29.712Z,5.10
2022-10-05T08:53:49.529Z,5.00
2022-10-05T08:56:44.067Z,5.18
2022-10-05T08:59:49.888Z,4.10
2022-10-05T09:02:45.907Z,4.20
2022-10-05T09:05:47.079Z,4.63
2022-10-05T09:08:46.831Z,4.63
2022-10-05T09:11:53.545Z,4.25
2022-10-05T09:15:13.700Z,3.95
2022-10-05T09:18:00.862Z,4.80
2022-10-05T09:20:45.556Z,4.10
2022-10-05T09:23:33.165Z,4.13
2022-10-05T09:26:23.110Z,3.83
2022-10-05T09:29:33.165Z,3.55
2022-10-05T09:32:40.149Z,3.72
2022-10-05T09:35:44.542Z,3.78
2022-10-05T09:39:05.098Z,4.40
2022-10-05T09:42:06.685Z,4.47
2022-10-05T09:45:21.768Z,4.97
2022-10-05T09:48:16.211Z,4.00
2022-10-05T09:51:29.665Z,4.63
2022-10-05T09:54:44.227Z,4.30
2022-10-05T09:57:53.067Z,3.33
2022-10-05T10:00:50.121Z,3.63
2022-10-05T10:03:50.215Z,3.15
2022-10-05T10:06:47.581Z,3.00
2022-10-05T10:09:38.704Z,3.10
2022-10-05T10:12:33.660Z,2.80
2022-10-05T10:15:23.892Z,3.20
2022-10-05T10:18:26.274Z,3.80
2022-10-05T10:21:18.852Z,3.95
2022-10-05T10:24:02.603Z,3.70
2022-10-05T10:27:04.428Z,3.65
2022-10-05T10:29:51.616Z,4.00
2022-10-05T10:32:46.236Z,4.00
2022-10-05T10:35:35.088Z,3.80
2022-10-05T10:38:28.748Z,3.53
2022-10-05T10:41:20.347Z,4.22
2022-10-05T10:44:28.469Z,4.28
2022-10-05T10:47:36.820Z,3.80
2022-10-05T10:50:28.288Z,3.88
2022-10-05T10:53:16.720Z,3.80
2022-10-05T10:56:25.338Z,4.47
2022-10-05T10:59:20.250Z,3.95
2022-10-05T11:02:15.485Z,4.53
2022-10-05T11:05:07.734Z,4.18
2022-10-05T11:07:43.560Z,4.77
2022-10-05T11:10:23.039Z,4.32
2022-10-05T11:13:32.784Z,4.45
2022-10-05T11:16:52.450Z,3.67
2022-10-05T11:20:16.673Z,4.15
2022-10-05T11:23:05.763Z,3.90
2022-10-05T11:25:44.172Z,4.50
2022-10-05T11:28:41.548Z,3.97
2022-10-05T11:31:33.924Z,3.90
2022-10-05T11:34:28.382Z,3.70
2022-10-05T11:37:23.211Z,4.33
2022-10-05T11:40:31.395Z,3.55
2022-10-05T11:43:41.627Z,3.72
2022-10-05T11:46:16.789Z,3.50
2022-10-05T11:49:04.976Z,3.53
2022-10-05T11:51:37.884Z,3.70
2022-10-05T11:54:58.458Z,3.40
2022-10-05T11:57:53.475Z,3.22
2022-10-05T12:00:31.679Z,4.00
2022-10-05T12:03:50.226Z,3.33
2022-10-05T12:06:44.551Z,3.50
2022-10-05T12:10:05.636Z,3.58
2022-10-05T12:13:02.295Z,3.45
2022-10-05T12:15:37.221Z,3.10
2022-10-05T12:18:16.093Z,3.78
2022-10-05T12:20:54.765Z,3.70
2022-10-05T12:23:44.886Z,3.63
2022-10-05T12:26:40.897Z,3.95
2022-10-05T12:29:39.311Z,3.05
2022-10-05T12:32:21.186Z,2.90
2022-10-05T12:35:04.521Z,2.83
2022-10-05T12:38:05.189Z,2.83
2022-10-05T12:40:51.569Z,2.58
2022-10-05T12:43:53.703Z,2.80
2022-10-05T12:46:38.487Z,2.67
2022-10-05T12:49:36.446Z,3.00
2022-10-05T12:52:24.480Z,3.45
2022-10-05T12:55:16.126Z,2.88
2022-10-05T12:58:02.069Z,3.05
2022-10-05T13:00:35.847Z,3.15
2022-10-05T13:03:18.172Z,3.00
2022-10-05T13:05:56.940Z,3.03
2022-10-05T13:08:50.580Z,3.00
2022-10-05T13:11:52.939Z,3.90
2022-10-05T13:15:04.261Z,2.90
2022-10-05T13:18:06.308Z,2.87
2022-10-05T13:21:04.460Z,2.92
2022-10-05T13:23:40.772Z,3.00
2022-10-05T13:26:14.850Z,2.90
2022-10-05T13:29:09.338Z,3.30
2022-10-05T13:34:50.240Z,2.80
2022-10-05T13:37:43.240Z,2.83
2022-10-05T13:40:53.717Z,3.50
2022-10-05T13:43:39.962Z,2.80
2022-10-05T13:46:42.875Z,2.97
2022-10-05T13:49:37.931Z,3.10
2022-10-05T13:52:53.971Z,3.03
2022-10-05T13:55:54.316Z,2.83
2022-10-05T13:58:36.665Z,2.50
2022-10-05T14:01:41.588Z,3.60
2022-10-05T14:04:25.412Z,3.13
2022-10-05T14:06:52.810Z,2.67
2022-10-05T14:09:29.552Z,2.83
2022-10-05T14:12:11.071Z,2.88
2022-10-05T14:14:53.414Z,2.87
2022-10-05T14:17:40.698Z,2.47
2022-10-05T14:20:28.944Z,2.50
2022-10-05T14:23:05.814Z,2.47
2022-10-05T14:25:53.675Z,3.30
2022-10-05T14:28:32.751Z,2.43
2022-10-05T14:31:48.470Z,2.10
2022-10-05T14:34:35.664Z,2.58
2022-10-05T14:37:23.516Z,2.03
2022-10-05T14:39:54.580Z,2.58
2022-10-05T14:42:28.772Z,2.50
2022-10-05T14:45:18.179Z,2.30
2022-10-05T14:48:02.365Z,2.28
2022-10-05T14:50:31.570Z,2.35
2022-10-05T14:53:16.688Z,2.30
2022-10-05T14:56:21.877Z,2.10
2022-10-05T14:59:25.939Z,2.60
2022-10-05T15:02:17.387Z,2.30
2022-10-05T15:05:31.429Z,2.00
2022-10-05T15:08:24.148Z,2.25
2022-10-05T15:11:03.323Z,2.70
2022-10-05T15:13:38.504Z,2.13
2022-10-05T15:16:21.197Z,2.80
2022-10-05T15:19:21.637Z,2.30
2022-10-05T15:22:19.090Z,2.50
2022-10-05T15:25:03.535Z,2.13
2022-10-05T15:28:00.122Z,2.60
2022-10-05T15:30:27.128Z,2.53
2022-10-05T15:33:15.553Z,2.55
2022-10-05T15:36:06.325Z,2.45
2022-10-05T15:38:49.875Z,2.83
2022-10-05T15:41:52.809Z,2.10
2022-10-05T15:44:55.215Z,2.20
2022-10-05T15:47:47.663Z,2.42
2022-10-05T15:50:39.288Z,2.47
2022-10-05T15:53:33.135Z,2.20
2022-10-05T15:56:20.785Z,2.47
2022-10-05T15:59:17.627Z,2.75
2022-10-05T16:02:00.864Z,2.97
2022-10-05T16:05:17.447Z,2.42
2022-10-05T16:08:11.206Z,2.43
2022-10-05T16:10:44.370Z,2.35
2022-10-05T16:13:34.019Z,2.20
2022-10-05T16:16:51.891Z,2.67
2022-10-05T16:19:24.859Z,2.05
2022-10-05T16:22:03.859Z,2.10
2022-10-05T16:24:42.617Z,2.53
2022-10-05T16:27:49.740Z,2.47
2022-10-05T16:30:23.094Z,2.17
2022-10-05T16:33:05.502Z,2.17
2022-10-05T16:36:02.809Z,1.93
2022-10-05T16:39:05.330Z,2.53
2022-10-05T16:41:57.273Z,2.30
2022-10-05T16:44:38.891Z,2.15
2022-10-05T16:47:53.752Z,2.42
2022-10-05T16:51:19.915Z,2.37
2022-10-05T16:54:08.423Z,2.30
2022-10-05T16:57:17.345Z,2.47
2022-10-05T16:59:59.226Z,2.20
2022-10-05T17:03:04.819Z,2.22
2022-10-05T17:06:12.176Z,2.70
2022-10-05T17:09:16.940Z,2.65
2022-10-05T17:12:12.132Z,2.50
2022-10-05T17:15:11.184Z,2.72
2022-10-05T17:17:58.707Z,2.60
2022-10-05T17:21:16.596Z,2.50
2022-10-05T17:24:18.935Z,3.00
2022-10-05T17:26:45.804Z,2.60
2022-10-05T17:29:51.635Z,2.97
2022-10-05T17:32:18.531Z,2.60
2022-10-05T17:35:00.456Z,3.00
2022-10-05T17:37:27.273Z,2.85
2022-10-05T17:39:56.971Z,2.33
2022-10-05T17:42:28.567Z,2.45
2022-10-05T17:45:14.572Z,3.05
2022-10-05T17:48:03.208Z,2.57
2022-10-05T17:51:02.978Z,3.10
2022-10-05T17:54:02.226Z,2.60
2022-10-05T17:56:31.661Z,2.63
2022-10-05T17:59:03.309Z,2.92
2022-10-05T18:01:39.538Z,3.00
2022-10-05T18:04:12.628Z,3.08
2022-10-05T18:07:04.857Z,2.92
2022-10-05T18:09:50.294Z,2.75
2022-10-05T18:12:17.715Z,2.75
2022-10-05T18:15:00.914Z,2.90
2022-10-05T18:17:51.262Z,3.00
2022-10-05T18:20:34.821Z,2.80
2022-10-05T18:23:07.609Z,2.63
2022-10-05T18:26:20.363Z,2.80
2022-10-05T18:29:55.635Z,3.03
2022-10-05T18:32:47.010Z,2.97
2022-10-05T18:35:46.620Z,3.28
2022-10-05T18:38:56.784Z,3.20
2022-10-05T18:41:40.400Z,3.55
2022-10-05T18:44:33.713Z,3.03
2022-10-05T18:47:18.908Z,2.72
2022-10-05T18:50:27.284Z,3.10
2022-10-05T18:53:08.477Z,2.80
2022-10-05T18:56:03.182Z,3.45
2022-10-05T18:59:18.350Z,2.90
2022-10-05T19:02:23.990Z,3.17
2022-10-05T19:05:45.846Z,3.83
2022-10-05T19:08:19.337Z,2.88
2022-10-05T19:10:55.357Z,2.60
2022-10-05T19:13:50.899Z,2.83
2022-10-05T19:17:07.698Z,3.08
2022-10-05T19:20:05.172Z,2.95
2022-10-05T19:22:56.925Z,2.65
2022-10-05T19:25:36.763Z,3.22
2022-10-05T19:28:37.492Z,3.87
2022-10-05T19:31:30.602Z,3.10
2022-10-05T19:34:16.495Z,2.92
2022-10-05T19:36:43.996Z,3.25
2022-10-05T19:39:45.639Z,3.20
2022-10-05T19:42:30.274Z,3.53
2022-10-05T19:45:33.437Z,3.58
2022-10-05T19:48:21.413Z,4.05
2022-10-05T19:51:02.146Z,2.95
2022-10-05T19:53:37.884Z,2.45
2022-10-05T19:56:25.117Z,1.50
2022-10-05T19:58:56.395Z,1.65
2022-10-05T20:01:36.368Z,1.10
2022-10-05T20:04:04.953Z,1.30
2022-10-05T20:06:31.873Z,1.20
2022-10-05T20:09:01.903Z,1.17
2022-10-05T20:11:29.298Z,0.95
2022-10-05T20:14:02.377Z,1.20
2022-10-05T20:16:53.220Z,1.10
2022-10-05T20:19:54.744Z,1.10
2022-10-05T20:22:46.321Z,1.53
2022-10-05T20:25:19.342Z,1.30
2022-10-05T20:27:51.132Z,1.20
2022-10-05T20:30:25.104Z,1.17
2022-10-05T20:33:10.267Z,1.00
2022-10-05T20:35:37.141Z,1.40
2022-10-05T20:38:04.013Z,1.02
2022-10-05T20:40:31.078Z,1.17
2022-10-05T20:42:58.925Z,1.50
2022-10-05T20:45:25.941Z,1.42
2022-10-05T20:47:52.835Z,1.60
2022-10-05T20:50:22.731Z,1.45
2022-10-05T20:52:49.739Z,1.60
2022-10-05T20:55:16.720Z,1.38
2022-10-05T20:57:45.608Z,1.42
2022-10-05T21:00:13.515Z,1.50
2022-10-05T21:02:40.615Z,1.70
2022-10-05T21:05:08.362Z,1.70
2022-10-05T21:07:35.607Z,1.52
2022-10-05T21:10:03.765Z,1.33
2022-10-05T21:12:32.621Z,1.47
2022-10-05T21:14:59.780Z,1.60
2022-10-05T21:17:26.736Z,1.33
2022-10-05T21:19:53.652Z,1.02
2022-10-05T21:22:20.537Z,1.20
2022-10-05T21:24:48.322Z,1.13
2022-10-05T21:27:15.565Z,1.40
2022-10-05T21:29:44.007Z,1.10
2022-10-05T21:32:11.719Z,1.20
2022-10-05T21:34:40.463Z,1.05
2022-10-05T21:37:08.702Z,0.97
2022-10-05T21:39:36.481Z,1.30
2022-10-05T21:42:03.718Z,1.13
2022-10-05T21:44:30.612Z,1.20
2022-10-05T21:46:57.587Z,1.10
2022-10-05T21:49:25.609Z,1.33
2022-10-05T21:51:52.642Z,1.30
2022-10-05T21:54:22.523Z,1.20
2022-10-05T21:56:53.888Z,1.23
2022-10-05T21:59:26.351Z,1.02
2022-10-05T22:01:53.352Z,1.47
2022-10-05T22:04:20.674Z,1.17
2022-10-05T22:06:48.894Z,1.02
2022-10-05T22:09:15.852Z,1.20
2022-10-05T22:11:45.667Z,0.82
2022-10-05T22:14:15.516Z,1.10
2022-10-05T22:16:43.468Z,1.10
2022-10-05T22:19:18.844Z,1.50
2022-10-05T22:21:45.745Z,1.00
2022-10-05T22:24:12.644Z,1.58
2022-10-05T22:26:42.790Z,1.23
2022-10-05T22:29:09.890Z,1.38
2022-10-05T22:31:37.393Z,1.30
2022-10-05T22:34:04.420Z,1.33
2022-10-05T22:36:33.164Z,1.35
2022-10-05T22:39:00.049Z,1.00
2022-10-05T22:41:26.928Z,1.70
2022-10-05T22:43:53.797Z,1.67
2022-10-05T22:46:21.757Z,1.52
2022-10-05T22:48:48.682Z,1.25
2022-10-05T22:51:15.577Z,1.40
2022-10-05T22:53:42.471Z,1.88
2022-10-05T22:56:14.567Z,2.20
2022-10-05T22:58:42.895Z,1.88
2022-10-05T23:01:14.722Z,1.83
2022-10-05T23:03:42.027Z,1.50
2022-10-05T23:06:13.304Z,1.83
2022-10-05T23:08:42.045Z,2.08
2022-10-05T23:11:13.839Z,2.10
2022-10-05T23:13:41.528Z,1.77
2022-10-05T23:16:15.226Z,2.37
2022-10-05T23:18:43.438Z,2.30
2022-10-05T23:21:11.511Z,1.55
2022-10-05T23:23:41.035Z,1.88
2022-10-05T23:26:11.636Z,2.30
2022-10-05T23:28:49.132Z,1.83
2022-10-05T23:31:20.480Z,2.50
2022-10-05T23:33:48.298Z,2.20
2022-10-05T23:36:22.036Z,2.17
2022-10-05T23:38:49.513Z,2.50
2022-10-05T23:41:17.508Z,2.47
2022-10-05T23:43:44.474Z,2.65
2022-10-05T23:46:12.392Z,3.03
2022-10-05T23:48:40.106Z,2.45
2022-10-05T23:51:10.550Z,2.40
2022-10-05T23:53:37.580Z,2.90
2022-10-05T23:56:05.501Z,3.08
2022-10-05T23:58:32.632Z,2.45
